sensor_id;sensor_type;location;lat;lon;timestamp;P1;durP1;ratioP1;P2;durP2;ratioP2
35891;SDS011;21993;42.672;23.296;2022-08-21T00:00:54;15.97;;;10.33;;
35891;SDS011;21993;42.672;23.296;2022-08-21T00:03:19;19.30;;;11.20;;
35891;SDS011;21993;42.672;23.296;2022-08-21T00:05:46;17.20;;;9.93;;
35891;SDS011;21993;42.672;23.296;2022-08-21T00:08:15;20.30;;;13.27;;
35891;SDS011;21993;42.672;23.296;2022-08-21T00:10:41;21.67;;;13.00;;
35891;SDS011;21993;42.672;23.296;2022-08-21T00:13:08;18.47;;;11.77;;
35891;SDS011;21993;42.672;23.296;2022-08-21T00:15:36;17.50;;;11.00;;
35891;SDS011;21993;42.672;23.296;2022-08-21T00:18:03;15.43;;;10.10;;
35891;SDS011;21993;42.672;23.296;2022-08-21T00:20:31;16.57;;;9.40;;
35891;SDS011;21993;42.672;23.296;2022-08-21T00:22:57;17.17;;;9.93;;
35891;SDS011;21993;42.672;23.296;2022-08-21T00:25:23;16.90;;;10.17;;
35891;SDS011;21993;42.672;23.296;2022-08-21T00:27:49;15.20;;;10.20;;
35891;SDS011;21993;42.672;23.296;2022-08-21T00:30:15;13.97;;;9.23;;
35891;SDS011;21993;42.672;23.296;2022-08-21T00:32:42;15.77;;;9.90;;
35891;SDS011;21993;42.672;23.296;2022-08-21T00:35:09;17.50;;;10.50;;
35891;SDS011;21993;42.672;23.296;2022-08-21T00:37:38;14.77;;;10.40;;
35891;SDS011;21993;42.672;23.296;2022-08-21T00:40:05;20.27;;;10.27;;
35891;SDS011;21993;42.672;23.296;2022-08-21T00:42:32;13.97;;;9.93;;
35891;SDS011;21993;42.672;23.296;2022-08-21T00:44:58;16.97;;;9.87;;
35891;SDS011;21993;42.672;23.296;2022-08-21T00:47:23;16.70;;;8.23;;
35891;SDS011;21993;42.672;23.296;2022-08-21T00:49:49;12.83;;;8.23;;
35891;SDS011;21993;42.672;23.296;2022-08-21T00:52:22;15.60;;;9.30;;
35891;SDS011;21993;42.672;23.296;2022-08-21T00:54:52;12.57;;;9.27;;
35891;SDS011;21993;42.672;23.296;2022-08-21T00:57:21;13.03;;;7.83;;
35891;SDS011;21993;42.672;23.296;2022-08-21T00:59:54;15.30;;;9.00;;
35891;SDS011;21993;42.672;23.296;2022-08-21T01:02:23;15.10;;;8.93;;
35891;SDS011;21993;42.672;23.296;2022-08-21T01:04:49;12.27;;;8.33;;
35891;SDS011;21993;42.672;23.296;2022-08-21T01:07:15;11.83;;;7.63;;
35891;SDS011;21993;42.672;23.296;2022-08-21T01:09:42;15.13;;;8.40;;
35891;SDS011;21993;42.672;23.296;2022-08-21T01:12:08;13.03;;;7.63;;
35891;SDS011;21993;42.672;23.296;2022-08-21T01:14:35;14.20;;;8.20;;
35891;SDS011;21993;42.672;23.296;2022-08-21T01:17:02;13.13;;;8.00;;
35891;SDS011;21993;42.672;23.296;2022-08-21T01:19:28;9.93;;;7.60;;
35891;SDS011;21993;42.672;23.296;2022-08-21T01:21:55;13.50;;;7.87;;
35891;SDS011;21993;42.672;23.296;2022-08-21T01:24:21;10.80;;;7.20;;
35891;SDS011;21993;42.672;23.296;2022-08-21T01:26:47;14.97;;;8.33;;
35891;SDS011;21993;42.672;23.296;2022-08-21T01:29:34;11.97;;;8.00;;
35891;SDS011;21993;42.672;23.296;2022-08-21T01:32:05;11.80;;;7.57;;
35891;SDS011;21993;42.672;23.296;2022-08-21T01:34:35;12.57;;;7.67;;
35891;SDS011;21993;42.672;23.296;2022-08-21T01:37:03;11.37;;;7.50;;
35891;SDS011;21993;42.672;23.296;2022-08-21T01:39:29;16.50;;;7.93;;
35891;SDS011;21993;42.672;23.296;2022-08-21T01:41:55;12.17;;;7.60;;
35891;SDS011;21993;42.672;23.296;2022-08-21T01:44:21;15.47;;;7.83;;
35891;SDS011;21993;42.672;23.296;2022-08-21T01:46:48;10.07;;;7.17;;
35891;SDS011;21993;42.672;23.296;2022-08-21T01:49:14;14.33;;;6.80;;
35891;SDS011;21993;42.672;23.296;2022-08-21T01:51:40;12.77;;;6.70;;
35891;SDS011;21993;42.672;23.296;2022-08-21T01:54:06;6.40;;;5.73;;
35891;SDS011;21993;42.672;23.296;2022-08-21T01:56:38;12.23;;;5.77;;
35891;SDS011;21993;42.672;23.296;2022-08-21T01:59:06;10.03;;;5.63;;
35891;SDS011;21993;42.672;23.296;2022-08-21T02:01:33;13.03;;;6.50;;
35891;SDS011;21993;42.672;23.296;2022-08-21T02:03:58;10.77;;;6.70;;
35891;SDS011;21993;42.672;23.296;2022-08-21T02:06:24;8.13;;;5.43;;
35891;SDS011;21993;42.672;23.296;2022-08-21T02:08:50;8.03;;;4.80;;
35891;SDS011;21993;42.672;23.296;2022-08-21T02:11:16;9.03;;;5.43;;
35891;SDS011;21993;42.672;23.296;2022-08-21T02:13:42;7.97;;;5.27;;
35891;SDS011;21993;42.672;23.296;2022-08-21T02:16:08;9.43;;;7.57;;
35891;SDS011;21993;42.672;23.296;2022-08-21T02:18:34;11.00;;;8.23;;
35891;SDS011;21993;42.672;23.296;2022-08-21T02:21:00;14.30;;;9.17;;
35891;SDS011;21993;42.672;23.296;2022-08-21T02:23:26;16.73;;;8.80;;
35891;SDS011;21993;42.672;23.296;2022-08-21T02:25:52;17.33;;;10.50;;
35891;SDS011;21993;42.672;23.296;2022-08-21T02:28:17;18.43;;;10.77;;
35891;SDS011;21993;42.672;23.296;2022-08-21T02:30:44;18.33;;;11.00;;
35891;SDS011;21993;42.672;23.296;2022-08-21T02:33:11;16.97;;;10.83;;
35891;SDS011;21993;42.672;23.296;2022-08-21T02:35:38;17.47;;;10.70;;
35891;SDS011;21993;42.672;23.296;2022-08-21T02:38:08;14.83;;;11.50;;
35891;SDS011;21993;42.672;23.296;2022-08-21T02:40:35;14.50;;;10.10;;
35891;SDS011;21993;42.672;23.296;2022-08-21T02:43:03;21.30;;;11.33;;
35891;SDS011;21993;42.672;23.296;2022-08-21T02:45:31;16.33;;;9.93;;
35891;SDS011;21993;42.672;23.296;2022-08-21T02:47:59;16.57;;;9.87;;
35891;SDS011;21993;42.672;23.296;2022-08-21T02:50:30;15.20;;;9.90;;
35891;SDS011;21993;42.672;23.296;2022-08-21T02:53:07;17.20;;;11.30;;
35891;SDS011;21993;42.672;23.296;2022-08-21T02:55:34;12.67;;;9.07;;
35891;SDS011;21993;42.672;23.296;2022-08-21T02:58:01;13.23;;;9.50;;
35891;SDS011;21993;42.672;23.296;2022-08-21T03:00:29;14.03;;;9.27;;
35891;SDS011;21993;42.672;23.296;2022-08-21T03:02:57;13.67;;;8.87;;
35891;SDS011;21993;42.672;23.296;2022-08-21T03:05:24;11.07;;;7.57;;
35891;SDS011;21993;42.672;23.296;2022-08-21T03:07:52;14.80;;;7.93;;
35891;SDS011;21993;42.672;23.296;2022-08-21T03:10:18;15.37;;;7.77;;
35891;SDS011;21993;42.672;23.296;2022-08-21T03:12:44;11.33;;;6.07;;
35891;SDS011;21993;42.672;23.296;2022-08-21T03:15:15;13.53;;;6.53;;
35891;SDS011;21993;42.672;23.296;2022-08-21T03:17:42;10.70;;;6.87;;
35891;SDS011;21993;42.672;23.296;2022-08-21T03:20:09;12.33;;;6.40;;
35891;SDS011;21993;42.672;23.296;2022-08-21T03:22:35;8.50;;;5.67;;
35891;SDS011;21993;42.672;23.296;2022-08-21T03:25:00;10.17;;;5.40;;
35891;SDS011;21993;42.672;23.296;2022-08-21T03:27:27;7.63;;;5.63;;
35891;SDS011;21993;42.672;23.296;2022-08-21T03:29:53;13.67;;;6.03;;
35891;SDS011;21993;42.672;23.296;2022-08-21T03:32:20;10.57;;;6.47;;
35891;SDS011;21993;42.672;23.296;2022-08-21T03:34:46;10.67;;;6.67;;
35891;SDS011;21993;42.672;23.296;2022-08-21T03:37:12;12.37;;;7.47;;
35891;SDS011;21993;42.672;23.296;2022-08-21T03:39:38;12.97;;;7.63;;
35891;SDS011;21993;42.672;23.296;2022-08-21T03:42:04;13.30;;;8.17;;
35891;SDS011;21993;42.672;23.296;2022-08-21T03:44:31;12.87;;;8.07;;
35891;SDS011;21993;42.672;23.296;2022-08-21T03:46:57;18.93;;;10.07;;
35891;SDS011;21993;42.672;23.296;2022-08-21T03:49:23;22.13;;;12.27;;
35891;SDS011;21993;42.672;23.296;2022-08-21T03:51:50;21.77;;;12.83;;
35891;SDS011;21993;42.672;23.296;2022-08-21T03:54:15;30.83;;;15.80;;
35891;SDS011;21993;42.672;23.296;2022-08-21T03:56:41;27.77;;;16.70;;
35891;SDS011;21993;42.672;23.296;2022-08-21T03:59:06;25.90;;;16.23;;
35891;SDS011;21993;42.672;23.296;2022-08-21T04:01:33;29.13;;;16.63;;
35891;SDS011;21993;42.672;23.296;2022-08-21T04:03:58;30.77;;;15.70;;
35891;SDS011;21993;42.672;23.296;2022-08-21T04:06:24;26.60;;;15.50;;
35891;SDS011;21993;42.672;23.296;2022-08-21T04:08:51;25.47;;;15.43;;
35891;SDS011;21993;42.672;23.296;2022-08-21T04:11:17;33.60;;;15.80;;
35891;SDS011;21993;42.672;23.296;2022-08-21T04:13:43;23.90;;;14.07;;
35891;SDS011;21993;42.672;23.296;2022-08-21T04:16:09;24.23;;;14.47;;
35891;SDS011;21993;42.672;23.296;2022-08-21T04:18:34;24.27;;;13.57;;
35891;SDS011;21993;42.672;23.296;2022-08-21T04:21:00;18.10;;;11.37;;
35891;SDS011;21993;42.672;23.296;2022-08-21T04:23:27;19.17;;;11.13;;
35891;SDS011;21993;42.672;23.296;2022-08-21T04:25:54;18.53;;;11.73;;
35891;SDS011;21993;42.672;23.296;2022-08-21T04:28:24;16.57;;;7.90;;
35891;SDS011;21993;42.672;23.296;2022-08-21T04:30:51;12.07;;;7.50;;
35891;SDS011;21993;42.672;23.296;2022-08-21T04:33:17;12.17;;;7.63;;
35891;SDS011;21993;42.672;23.296;2022-08-21T04:35:43;10.50;;;5.97;;
35891;SDS011;21993;42.672;23.296;2022-08-21T04:38:08;8.57;;;6.57;;
35891;SDS011;21993;42.672;23.296;2022-08-21T04:40:34;9.20;;;5.77;;
35891;SDS011;21993;42.672;23.296;2022-08-21T04:43:04;8.30;;;6.20;;
35891;SDS011;21993;42.672;23.296;2022-08-21T04:45:37;8.80;;;6.40;;
35891;SDS011;21993;42.672;23.296;2022-08-21T04:48:06;9.40;;;6.17;;
35891;SDS011;21993;42.672;23.296;2022-08-21T04:52:59;15.77;;;6.83;;
35891;SDS011;21993;42.672;23.296;2022-08-21T04:55:25;11.90;;;7.30;;
35891;SDS011;21993;42.672;23.296;2022-08-21T04:57:52;11.03;;;7.00;;
35891;SDS011;21993;42.672;23.296;2022-08-21T05:00:20;13.40;;;7.70;;
35891;SDS011;21993;42.672;23.296;2022-08-21T05:02:47;9.90;;;7.07;;
35891;SDS011;21993;42.672;23.296;2022-08-21T05:05:14;13.57;;;7.33;;
35891;SDS011;21993;42.672;23.296;2022-08-21T05:07:41;11.80;;;8.20;;
35891;SDS011;21993;42.672;23.296;2022-08-21T05:10:09;11.80;;;8.03;;
35891;SDS011;21993;42.672;23.296;2022-08-21T05:12:35;12.03;;;7.47;;
35891;SDS011;21993;42.672;23.296;2022-08-21T05:15:01;10.47;;;6.73;;
35891;SDS011;21993;42.672;23.296;2022-08-21T05:17:28;12.83;;;7.63;;
35891;SDS011;21993;42.672;23.296;2022-08-21T05:19:54;11.10;;;6.17;;
35891;SDS011;21993;42.672;23.296;2022-08-21T05:22:20;11.73;;;7.17;;
35891;SDS011;21993;42.672;23.296;2022-08-21T05:24:47;11.43;;;8.60;;
35891;SDS011;21993;42.672;23.296;2022-08-21T05:27:12;12.70;;;7.97;;
35891;SDS011;21993;42.672;23.296;2022-08-21T05:29:38;11.50;;;8.27;;
35891;SDS011;21993;42.672;23.296;2022-08-21T05:32:10;9.77;;;7.07;;
35891;SDS011;21993;42.672;23.296;2022-08-21T05:34:38;12.50;;;7.30;;
35891;SDS011;21993;42.672;23.296;2022-08-21T05:37:03;9.73;;;7.30;;
35891;SDS011;21993;42.672;23.296;2022-08-21T05:39:29;11.07;;;7.27;;
35891;SDS011;21993;42.672;23.296;2022-08-21T05:41:55;11.40;;;6.70;;
35891;SDS011;21993;42.672;23.296;2022-08-21T05:44:21;15.87;;;7.53;;
35891;SDS011;21993;42.672;23.296;2022-08-21T05:46:47;13.10;;;7.30;;
35891;SDS011;21993;42.672;23.296;2022-08-21T05:49:12;11.77;;;7.63;;
35891;SDS011;21993;42.672;23.296;2022-08-21T05:51:41;13.37;;;7.47;;
35891;SDS011;21993;42.672;23.296;2022-08-21T05:54:07;11.70;;;8.17;;
35891;SDS011;21993;42.672;23.296;2022-08-21T05:56:32;10.20;;;6.97;;
35891;SDS011;21993;42.672;23.296;2022-08-21T05:58:58;9.10;;;7.10;;
35891;SDS011;21993;42.672;23.296;2022-08-21T06:01:24;12.53;;;8.03;;
35891;SDS011;21993;42.672;23.296;2022-08-21T06:03:50;11.47;;;8.20;;
35891;SDS011;21993;42.672;23.296;2022-08-21T06:06:15;16.37;;;9.07;;
35891;SDS011;21993;42.672;23.296;2022-08-21T06:08:41;10.77;;;7.57;;
35891;SDS011;21993;42.672;23.296;2022-08-21T06:11:07;10.23;;;6.73;;
35891;SDS011;21993;42.672;23.296;2022-08-21T06:13:34;10.67;;;6.60;;
35891;SDS011;21993;42.672;23.296;2022-08-21T06:16:03;7.70;;;6.77;;
35891;SDS011;21993;42.672;23.296;2022-08-21T06:18:31;10.17;;;6.70;;
35891;SDS011;21993;42.672;23.296;2022-08-21T06:20:57;11.20;;;7.33;;
35891;SDS011;21993;42.672;23.296;2022-08-21T06:23:23;11.87;;;7.67;;
35891;SDS011;21993;42.672;23.296;2022-08-21T06:25:48;13.47;;;8.03;;
35891;SDS011;21993;42.672;23.296;2022-08-21T06:28:14;11.97;;;8.07;;
35891;SDS011;21993;42.672;23.296;2022-08-21T06:30:39;15.10;;;8.57;;
35891;SDS011;21993;42.672;23.296;2022-08-21T06:33:05;16.47;;;8.83;;
35891;SDS011;21993;42.672;23.296;2022-08-21T06:35:31;15.60;;;8.00;;
35891;SDS011;21993;42.672;23.296;2022-08-21T06:37:57;11.70;;;7.07;;
35891;SDS011;21993;42.672;23.296;2022-08-21T06:40:23;12.30;;;8.33;;
35891;SDS011;21993;42.672;23.296;2022-08-21T06:42:49;13.40;;;8.67;;
35891;SDS011;21993;42.672;23.296;2022-08-21T06:45:15;14.20;;;8.73;;
35891;SDS011;21993;42.672;23.296;2022-08-21T06:47:40;12.73;;;8.27;;
35891;SDS011;21993;42.672;23.296;2022-08-21T06:50:06;16.07;;;7.77;;
35891;SDS011;21993;42.672;23.296;2022-08-21T06:52:33;15.90;;;8.57;;
35891;SDS011;21993;42.672;23.296;2022-08-21T06:54:59;12.23;;;9.30;;
35891;SDS011;21993;42.672;23.296;2022-08-21T06:57:25;14.87;;;9.20;;
35891;SDS011;21993;42.672;23.296;2022-08-21T06:59:50;17.00;;;9.27;;
35891;SDS011;21993;42.672;23.296;2022-08-21T07:02:16;14.07;;;8.37;;
35891;SDS011;21993;42.672;23.296;2022-08-21T07:04:42;14.47;;;9.47;;
35891;SDS011;21993;42.672;23.296;2022-08-21T07:07:08;15.23;;;9.37;;
35891;SDS011;21993;42.672;23.296;2022-08-21T07:09:33;21.23;;;14.20;;
35891;SDS011;21993;42.672;23.296;2022-08-21T07:11:58;28.00;;;15.90;;
35891;SDS011;21993;42.672;23.296;2022-08-21T07:14:24;15.00;;;10.23;;
35891;SDS011;21993;42.672;23.296;2022-08-21T07:16:49;16.20;;;9.27;;
35891;SDS011;21993;42.672;23.296;2022-08-21T07:19:16;14.53;;;8.47;;
35891;SDS011;21993;42.672;23.296;2022-08-21T07:21:42;12.47;;;8.13;;
35891;SDS011;21993;42.672;23.296;2022-08-21T07:24:07;14.20;;;8.93;;
35891;SDS011;21993;42.672;23.296;2022-08-21T07:26:33;15.53;;;9.60;;
35891;SDS011;21993;42.672;23.296;2022-08-21T07:28:59;16.23;;;10.33;;
35891;SDS011;21993;42.672;23.296;2022-08-21T07:31:25;16.17;;;9.53;;
35891;SDS011;21993;42.672;23.296;2022-08-21T07:33:51;15.10;;;10.10;;
35891;SDS011;21993;42.672;23.296;2022-08-21T07:36:17;12.87;;;9.03;;
35891;SDS011;21993;42.672;23.296;2022-08-21T07:38:43;13.30;;;9.63;;
35891;SDS011;21993;42.672;23.296;2022-08-21T07:41:13;16.30;;;10.00;;
35891;SDS011;21993;42.672;23.296;2022-08-21T07:43:41;10.97;;;8.97;;
35891;SDS011;21993;42.672;23.296;2022-08-21T07:46:06;10.80;;;7.83;;
35891;SDS011;21993;42.672;23.296;2022-08-21T07:48:32;11.13;;;7.67;;
35891;SDS011;21993;42.672;23.296;2022-08-21T07:50:58;11.10;;;7.70;;
35891;SDS011;21993;42.672;23.296;2022-08-21T07:53:30;11.47;;;7.53;;
35891;SDS011;21993;42.672;23.296;2022-08-21T07:55:58;14.30;;;7.77;;
35891;SDS011;21993;42.672;23.296;2022-08-21T07:58:23;15.13;;;8.70;;
35891;SDS011;21993;42.672;23.296;2022-08-21T08:00:49;12.87;;;8.47;;
35891;SDS011;21993;42.672;23.296;2022-08-21T08:03:15;14.13;;;7.73;;
35891;SDS011;21993;42.672;23.296;2022-08-21T08:05:40;12.40;;;7.27;;
35891;SDS011;21993;42.672;23.296;2022-08-21T08:08:05;13.10;;;7.83;;
35891;SDS011;21993;42.672;23.296;2022-08-21T08:10:31;11.47;;;7.73;;
35891;SDS011;21993;42.672;23.296;2022-08-21T08:12:57;12.33;;;7.87;;
35891;SDS011;21993;42.672;23.296;2022-08-21T08:15:24;9.97;;;6.90;;
35891;SDS011;21993;42.672;23.296;2022-08-21T08:17:51;15.20;;;8.53;;
35891;SDS011;21993;42.672;23.296;2022-08-21T08:20:17;11.43;;;7.30;;
35891;SDS011;21993;42.672;23.296;2022-08-21T08:22:45;12.07;;;7.70;;
35891;SDS011;21993;42.672;23.296;2022-08-21T08:25:11;11.97;;;8.03;;
35891;SDS011;21993;42.672;23.296;2022-08-21T08:27:38;10.53;;;6.50;;
35891;SDS011;21993;42.672;23.296;2022-08-21T08:30:05;13.93;;;7.27;;
35891;SDS011;21993;42.672;23.296;2022-08-21T08:32:32;10.63;;;7.33;;
35891;SDS011;21993;42.672;23.296;2022-08-21T08:34:58;13.03;;;7.70;;
35891;SDS011;21993;42.672;23.296;2022-08-21T08:37:24;11.60;;;7.93;;
35891;SDS011;21993;42.672;23.296;2022-08-21T08:39:50;8.67;;;7.27;;
35891;SDS011;21993;42.672;23.296;2022-08-21T08:42:17;9.23;;;7.20;;
35891;SDS011;21993;42.672;23.296;2022-08-21T08:44:50;10.80;;;7.00;;
35891;SDS011;21993;42.672;23.296;2022-08-21T08:47:25;16.23;;;7.40;;
35891;SDS011;21993;42.672;23.296;2022-08-21T08:49:59;11.23;;;6.67;;
35891;SDS011;21993;42.672;23.296;2022-08-21T08:52:34;10.53;;;7.40;;
35891;SDS011;21993;42.672;23.296;2022-08-21T08:57:35;9.53;;;6.30;;
35891;SDS011;21993;42.672;23.296;2022-08-21T09:00:06;11.80;;;6.87;;
35891;SDS011;21993;42.672;23.296;2022-08-21T09:02:40;10.20;;;6.30;;
35891;SDS011;21993;42.672;23.296;2022-08-21T09:05:07;10.67;;;6.40;;
35891;SDS011;21993;42.672;23.296;2022-08-21T09:07:44;15.90;;;8.07;;
35891;SDS011;21993;42.672;23.296;2022-08-21T09:21:33;13.20;;;5.90;;
35891;SDS011;21993;42.672;23.296;2022-08-21T09:29:25;9.53;;;6.13;;
35891;SDS011;21993;42.672;23.296;2022-08-21T09:31:55;10.20;;;6.67;;
35891;SDS011;21993;42.672;23.296;2022-08-21T09:34:30;12.63;;;6.83;;
35891;SDS011;21993;42.672;23.296;2022-08-21T09:36:57;11.00;;;6.10;;
35891;SDS011;21993;42.672;23.296;2022-08-21T09:39:28;7.27;;;6.20;;
35891;SDS011;21993;42.672;23.296;2022-08-21T09:42:06;13.40;;;5.93;;
35891;SDS011;21993;42.672;23.296;2022-08-21T09:44:34;7.73;;;5.77;;
35891;SDS011;21993;42.672;23.296;2022-08-21T09:47:08;12.10;;;6.40;;
35891;SDS011;21993;42.672;23.296;2022-08-21T09:49:36;8.53;;;6.10;;
35891;SDS011;21993;42.672;23.296;2022-08-21T09:52:17;7.37;;;5.80;;
35891;SDS011;21993;42.672;23.296;2022-08-21T09:54:48;11.13;;;5.83;;
35891;SDS011;21993;42.672;23.296;2022-08-21T09:57:24;8.10;;;5.83;;
35891;SDS011;21993;42.672;23.296;2022-08-21T10:00:19;8.67;;;5.50;;
35891;SDS011;21993;42.672;23.296;2022-08-21T10:02:50;11.17;;;6.63;;
35891;SDS011;21993;42.672;23.296;2022-08-21T10:07:41;11.83;;;6.43;;
35891;SDS011;21993;42.672;23.296;2022-08-21T10:18:24;10.07;;;5.70;;
35891;SDS011;21993;42.672;23.296;2022-08-21T10:21:02;10.10;;;6.33;;
35891;SDS011;21993;42.672;23.296;2022-08-21T10:28:45;8.83;;;6.00;;
35891;SDS011;21993;42.672;23.296;2022-08-21T10:36:37;14.73;;;6.40;;
35891;SDS011;21993;42.672;23.296;2022-08-21T10:39:58;7.10;;;5.70;;
35891;SDS011;21993;42.672;23.296;2022-08-21T10:42:41;9.30;;;5.70;;
35891;SDS011;21993;42.672;23.296;2022-08-21T10:47:53;9.33;;;5.57;;
35891;SDS011;21993;42.672;23.296;2022-08-21T10:50:30;9.87;;;5.17;;
35891;SDS011;21993;42.672;23.296;2022-08-21T10:53:05;11.20;;;6.57;;
35891;SDS011;21993;42.672;23.296;2022-08-21T10:55:35;7.37;;;5.47;;
35891;SDS011;21993;42.672;23.296;2022-08-21T10:58:08;7.40;;;5.90;;
35891;SDS011;21993;42.672;23.296;2022-08-21T11:00:47;20.73;;;14.23;;
35891;SDS011;21993;42.672;23.296;2022-08-21T11:03:33;13.20;;;6.33;;
35891;SDS011;21993;42.672;23.296;2022-08-21T11:06:13;12.10;;;6.30;;
35891;SDS011;21993;42.672;23.296;2022-08-21T11:08:44;11.43;;;7.27;;
35891;SDS011;21993;42.672;23.296;2022-08-21T11:11:18;9.80;;;6.00;;
35891;SDS011;21993;42.672;23.296;2022-08-21T11:13:58;8.40;;;5.83;;
35891;SDS011;21993;42.672;23.296;2022-08-21T11:19:08;8.40;;;6.13;;
35891;SDS011;21993;42.672;23.296;2022-08-21T11:24:43;10.10;;;6.37;;
35891;SDS011;21993;42.672;23.296;2022-08-21T11:30:03;11.00;;;6.37;;
35891;SDS011;21993;42.672;23.296;2022-08-21T11:35:39;9.03;;;5.87;;
35891;SDS011;21993;42.672;23.296;2022-08-21T11:38:29;10.93;;;6.53;;
35891;SDS011;21993;42.672;23.296;2022-08-21T11:52:10;9.80;;;6.23;;
35891;SDS011;21993;42.672;23.296;2022-08-21T11:54:39;11.90;;;6.23;;
35891;SDS011;21993;42.672;23.296;2022-08-21T11:57:15;10.20;;;5.50;;
35891;SDS011;21993;42.672;23.296;2022-08-21T12:02:14;8.10;;;5.90;;
35891;SDS011;21993;42.672;23.296;2022-08-21T12:04:47;8.43;;;5.20;;
35891;SDS011;21993;42.672;23.296;2022-08-21T12:07:37;8.77;;;5.40;;
35891;SDS011;21993;42.672;23.296;2022-08-21T12:10:10;7.10;;;5.50;;
35891;SDS011;21993;42.672;23.296;2022-08-21T12:12:41;8.50;;;5.43;;
35891;SDS011;21993;42.672;23.296;2022-08-21T12:17:51;7.97;;;5.77;;
35891;SDS011;21993;42.672;23.296;2022-08-21T12:22:52;9.60;;;5.83;;
35891;SDS011;21993;42.672;23.296;2022-08-21T12:25:20;9.03;;;5.67;;
35891;SDS011;21993;42.672;23.296;2022-08-21T12:27:49;7.40;;;5.67;;
35891;SDS011;21993;42.672;23.296;2022-08-21T12:33:04;8.93;;;6.10;;
35891;SDS011;21993;42.672;23.296;2022-08-21T12:35:42;8.37;;;6.07;;
35891;SDS011;21993;42.672;23.296;2022-08-21T12:38:16;8.00;;;5.80;;
35891;SDS011;21993;42.672;23.296;2022-08-21T12:40:50;8.37;;;5.30;;
35891;SDS011;21993;42.672;23.296;2022-08-21T12:43:25;8.30;;;5.37;;
35891;SDS011;21993;42.672;23.296;2022-08-21T12:45:51;8.50;;;5.83;;
35891;SDS011;21993;42.672;23.296;2022-08-21T12:51:08;9.20;;;6.03;;
35891;SDS011;21993;42.672;23.296;2022-08-21T12:53:42;7.13;;;5.90;;
35891;SDS011;21993;42.672;23.296;2022-08-21T12:56:14;10.10;;;5.10;;
35891;SDS011;21993;42.672;23.296;2022-08-21T12:58:50;6.43;;;5.57;;
35891;SDS011;21993;42.672;23.296;2022-08-21T13:01:28;11.73;;;5.77;;
35891;SDS011;21993;42.672;23.296;2022-08-21T13:03:57;7.63;;;5.47;;
35891;SDS011;21993;42.672;23.296;2022-08-21T13:06:25;8.17;;;5.30;;
35891;SDS011;21993;42.672;23.296;2022-08-21T13:08:57;6.00;;;5.20;;
35891;SDS011;21993;42.672;23.296;2022-08-21T13:11:29;7.23;;;5.40;;
35891;SDS011;21993;42.672;23.296;2022-08-21T13:13:56;6.47;;;5.57;;
35891;SDS011;21993;42.672;23.296;2022-08-21T13:16:24;7.43;;;5.53;;
35891;SDS011;21993;42.672;23.296;2022-08-21T13:18:54;8.93;;;5.87;;
35891;SDS011;21993;42.672;23.296;2022-08-21T13:21:26;8.60;;;5.37;;
35891;SDS011;21993;42.672;23.296;2022-08-21T13:23:53;7.50;;;4.87;;
35891;SDS011;21993;42.672;23.296;2022-08-21T13:26:20;6.90;;;5.33;;
35891;SDS011;21993;42.672;23.296;2022-08-21T13:28:46;9.13;;;5.27;;
35891;SDS011;21993;42.672;23.296;2022-08-21T13:31:21;11.17;;;7.47;;
35891;SDS011;21993;42.672;23.296;2022-08-21T13:33:51;11.50;;;5.63;;
35891;SDS011;21993;42.672;23.296;2022-08-21T13:36:26;7.53;;;5.03;;
35891;SDS011;21993;42.672;23.296;2022-08-21T13:39:01;10.07;;;5.17;;
35891;SDS011;21993;42.672;23.296;2022-08-21T13:41:34;10.37;;;5.37;;
35891;SDS011;21993;42.672;23.296;2022-08-21T13:44:03;10.60;;;7.93;;
35891;SDS011;21993;42.672;23.296;2022-08-21T13:46:33;6.20;;;5.53;;
35891;SDS011;21993;42.672;23.296;2022-08-21T13:49:01;6.90;;;5.07;;
35891;SDS011;21993;42.672;23.296;2022-08-21T13:51:30;6.23;;;5.07;;
35891;SDS011;21993;42.672;23.296;2022-08-21T13:53:56;8.40;;;5.20;;
35891;SDS011;21993;42.672;23.296;2022-08-21T13:56:27;9.67;;;5.73;;
35891;SDS011;21993;42.672;23.296;2022-08-21T13:58:58;10.97;;;5.23;;
35891;SDS011;21993;42.672;23.296;2022-08-21T14:01:26;9.10;;;5.83;;
35891;SDS011;21993;42.672;23.296;2022-08-21T14:03:57;9.40;;;5.83;;
35891;SDS011;21993;42.672;23.296;2022-08-21T14:06:27;7.50;;;5.30;;
35891;SDS011;21993;42.672;23.296;2022-08-21T14:08:59;11.67;;;6.30;;
35891;SDS011;21993;42.672;23.296;2022-08-21T14:11:32;11.50;;;7.57;;
35891;SDS011;21993;42.672;23.296;2022-08-21T14:14:02;9.60;;;5.87;;
35891;SDS011;21993;42.672;23.296;2022-08-21T14:17:13;6.60;;;5.07;;
35891;SDS011;21993;42.672;23.296;2022-08-21T14:19:38;9.93;;;6.03;;
35891;SDS011;21993;42.672;23.296;2022-08-21T14:25:01;7.67;;;6.17;;
35891;SDS011;21993;42.672;23.296;2022-08-21T14:27:31;14.67;;;6.20;;
35891;SDS011;21993;42.672;23.296;2022-08-21T14:30:04;7.23;;;5.73;;
35891;SDS011;21993;42.672;23.296;2022-08-21T14:32:41;9.37;;;5.70;;
35891;SDS011;21993;42.672;23.296;2022-08-21T14:35:07;11.83;;;6.77;;
35891;SDS011;21993;42.672;23.296;2022-08-21T14:37:33;10.53;;;6.40;;
35891;SDS011;21993;42.672;23.296;2022-08-21T14:39:59;7.47;;;6.40;;
35891;SDS011;21993;42.672;23.296;2022-08-21T14:42:25;13.47;;;6.83;;
35891;SDS011;21993;42.672;23.296;2022-08-21T14:44:51;10.63;;;6.20;;
35891;SDS011;21993;42.672;23.296;2022-08-21T14:47:19;9.70;;;7.40;;
35891;SDS011;21993;42.672;23.296;2022-08-21T14:49:44;9.07;;;6.77;;
35891;SDS011;21993;42.672;23.296;2022-08-21T14:52:10;10.40;;;7.20;;
35891;SDS011;21993;42.672;23.296;2022-08-21T14:54:35;10.80;;;6.27;;
35891;SDS011;21993;42.672;23.296;2022-08-21T14:57:02;9.13;;;7.37;;
35891;SDS011;21993;42.672;23.296;2022-08-21T14:59:30;9.87;;;6.37;;
35891;SDS011;21993;42.672;23.296;2022-08-21T15:01:57;7.53;;;6.73;;
35891;SDS011;21993;42.672;23.296;2022-08-21T15:04:23;11.80;;;6.90;;
35891;SDS011;21993;42.672;23.296;2022-08-21T15:06:49;11.93;;;7.33;;
35891;SDS011;21993;42.672;23.296;2022-08-21T15:09:14;10.40;;;6.97;;
35891;SDS011;21993;42.672;23.296;2022-08-21T15:11:39;13.03;;;7.40;;
35891;SDS011;21993;42.672;23.296;2022-08-21T15:14:06;12.57;;;7.13;;
35891;SDS011;21993;42.672;23.296;2022-08-21T15:16:35;14.00;;;7.50;;
35891;SDS011;21993;42.672;23.296;2022-08-21T15:19:01;9.13;;;7.10;;
35891;SDS011;21993;42.672;23.296;2022-08-21T15:21:27;10.30;;;7.20;;
35891;SDS011;21993;42.672;23.296;2022-08-21T15:23:52;10.53;;;6.73;;
35891;SDS011;21993;42.672;23.296;2022-08-21T15:26:19;13.50;;;7.63;;
35891;SDS011;21993;42.672;23.296;2022-08-21T15:28:47;10.43;;;7.53;;
35891;SDS011;21993;42.672;23.296;2022-08-21T15:31:13;11.90;;;7.03;;
35891;SDS011;21993;42.672;23.296;2022-08-21T15:33:38;14.43;;;8.03;;
35891;SDS011;21993;42.672;23.296;2022-08-21T15:36:04;9.27;;;8.03;;
35891;SDS011;21993;42.672;23.296;2022-08-21T15:38:29;11.50;;;7.30;;
35891;SDS011;21993;42.672;23.296;2022-08-21T15:40:55;11.23;;;7.33;;
35891;SDS011;21993;42.672;23.296;2022-08-21T15:45:48;11.80;;;7.13;;
35891;SDS011;21993;42.672;23.296;2022-08-21T15:48:14;15.87;;;11.00;;
35891;SDS011;21993;42.672;23.296;2022-08-21T15:50:40;12.50;;;8.00;;
35891;SDS011;21993;42.672;23.296;2022-08-21T15:53:05;12.83;;;7.57;;
35891;SDS011;21993;42.672;23.296;2022-08-21T15:55:32;8.97;;;7.10;;
35891;SDS011;21993;42.672;23.296;2022-08-21T15:57:58;9.33;;;6.97;;